»·PEaware :: SWA1337 KPHX-KONT

SWA1337 :: KPHX-KONT

FLIGHT INFORMATION

Flight Status: Arrived
Operator:
Southwest Airlines
More flights by this operator :: More flights under this callsign
Pilot: Skye D. (10623)
Aircraft: BOEING 737-700
(B737)
More flights by this aircraft type
Origin: KPHX Phoenix Sky Harbor Intl
United States
Destination: KONT Ontario Intl
United States
More flights between these airports :: More routes between these airports
Route: +IZZZO6 HRRBR PHRED SCBBY2
File this flight plan on PilotEdge
Remarks:
Altitude:
(Current/Filed)
34,000ft
Speed:
(Current/Filed)
440kts
Departed: 03-Mar-18 02:26 PM
Arrived: 03-Mar-18 03:26 PM
Distance/Time
Traveled:
281nm/1:00
Distance/Time
To Go:
Arrived

Flight Plot

Page will automatically refresh every two minutes.

Flight plan parsing failed; only flown route is shown


Map Options




Map Legend


Flown Route
Filed Route
Departure Airport
Arrival Airport
Navaid (VOR, NDB)
Fix

Horizontal Profiles

Position Reports

Time Latitude Longitude Heading Altitude Ground
Speed
03-Mar-18 14:10 33.433439 -111.998965 4 1143ft 0kts
03-Mar-18 14:11 33.433439 -111.998965 4 1143ft 0kts
03-Mar-18 14:12 33.433439 -111.998965 4 1143ft 0kts
03-Mar-18 14:13 33.433439 -111.998965 4 1143ft 0kts
03-Mar-18 14:14 33.433439 -111.998965 4 1143ft 0kts
03-Mar-18 14:15 33.433439 -111.998965 4 1143ft 0kts
03-Mar-18 14:16 33.433439 -111.998965 4 1143ft 0kts
03-Mar-18 14:17 33.433439 -111.998965 4 1143ft 0kts
03-Mar-18 14:18 33.433439 -111.998965 4 1143ft 0kts
03-Mar-18 14:19 33.433439 -111.998965 4 1143ft 0kts
03-Mar-18 14:20 33.433439 -111.998965 4 1143ft 0kts
03-Mar-18 14:21 33.433439 -111.998965 4 1143ft 0kts
03-Mar-18 14:22 33.433439 -111.998965 4 1143ft 0kts
03-Mar-18 14:23 33.433439 -111.998965 4 1143ft 0kts
03-Mar-18 14:24 33.433315 -111.998977 4 1143ft 2kts
03-Mar-18 14:25 33.432857 -111.999192 65 1143ft 2kts
03-Mar-18 14:26 33.432830 -111.999439 92 1143ft 0kts
03-Mar-18 14:27 33.432830 -111.999439 92 1143ft 0kts
03-Mar-18 14:28 33.432830 -111.999439 92 1143ft 0kts
03-Mar-18 14:29 33.432819 -111.996819 88 1143ft 15kts
03-Mar-18 14:30 33.432853 -111.994531 90 1143ft 8kts
03-Mar-18 14:31 33.432151 -111.993452 179 1143ft 0kts
03-Mar-18 14:32 33.431247 -111.993465 191 1143ft 7kts
03-Mar-18 14:33 33.431053 -112.002286 268 1143ft 106kts
03-Mar-18 14:34 33.430752 -112.041855 270 2666ft 161kts
03-Mar-18 14:35 33.432623 -112.087141 272 4952ft 168kts
03-Mar-18 14:36 33.435364 -112.152781 270 6455ft 255kts
03-Mar-18 14:37 33.438417 -112.236922 268 9771ft 275kts
03-Mar-18 14:38 33.443809 -112.335781 270 11621ft 345kts
03-Mar-18 14:39 33.447370 -112.451077 267 15047ft 356kts
03-Mar-18 14:40 33.449406 -112.568812 266 18379ft 363kts
03-Mar-18 14:41 33.451501 -112.689164 265 21186ft 376kts
03-Mar-18 14:42 33.457630 -112.814359 276 24327ft 382kts
03-Mar-18 14:43 33.478887 -112.934085 275 27622ft 367kts
03-Mar-18 14:44 33.499912 -113.051260 275 30272ft 360kts
03-Mar-18 14:45 33.519793 -113.159657 275 32484ft 353kts
03-Mar-18 14:46 33.540658 -113.273784 274 33829ft 356kts
03-Mar-18 14:47 33.561570 -113.388393 274 34035ft 364kts
03-Mar-18 14:48 33.583854 -113.510755 275 34077ft 387kts
03-Mar-18 14:49 33.606952 -113.635621 275 34033ft 385kts
03-Mar-18 14:50 33.630341 -113.759622 275 34011ft 384kts
03-Mar-18 14:51 33.647789 -113.883952 264 34004ft 375kts
03-Mar-18 14:52 33.647290 -114.005929 263 34010ft 376kts
03-Mar-18 14:53 33.645864 -114.130136 264 34006ft 376kts
03-Mar-18 14:54 33.664483 -114.254049 275 34027ft 386kts
03-Mar-18 14:55 33.680823 -114.378879 270 34031ft 382kts
03-Mar-18 14:56 33.691391 -114.503835 269 34028ft 380kts
03-Mar-18 14:57 33.701585 -114.629641 269 34028ft 381kts
03-Mar-18 14:58 33.712243 -114.753753 269 34013ft 381kts
03-Mar-18 14:59 33.722824 -114.878380 269 34008ft 378kts
03-Mar-18 15:00 33.732871 -115.002490 268 34009ft 379kts
03-Mar-18 15:01 33.742975 -115.128929 269 32741ft 386kts
03-Mar-18 15:02 33.754395 -115.253643 270 31228ft 379kts
03-Mar-18 15:03 33.767024 -115.376356 270 30110ft 379kts
03-Mar-18 15:04 33.779410 -115.500568 271 28824ft 418kts
03-Mar-18 15:05 33.793155 -115.630751 271 27388ft 403kts
03-Mar-18 15:06 33.804860 -115.746428 271 25957ft 392kts
03-Mar-18 15:07 33.817196 -115.871113 270 24470ft 388kts
03-Mar-18 15:08 33.828268 -115.984116 271 23141ft 382kts
03-Mar-18 15:09 33.839771 -116.100126 271 21220ft 372kts
03-Mar-18 15:10 33.850558 -116.208237 271 20411ft 367kts
03-Mar-18 15:11 33.861705 -116.316564 271 19693ft 363kts
03-Mar-18 15:12 33.873254 -116.423450 272 18987ft 358kts
03-Mar-18 15:13 33.892422 -116.518460 280 16479ft 367kts
03-Mar-18 15:14 33.913383 -116.603877 281 15109ft 344kts
03-Mar-18 15:15 33.934506 -116.685975 281 13840ft 334kts
03-Mar-18 15:16 33.945623 -116.771014 265 12660ft 318kts
03-Mar-18 15:17 33.944224 -116.856986 264 11601ft 304kts
03-Mar-18 15:18 33.941903 -116.938399 265 10829ft 271kts
03-Mar-18 15:19 33.958139 -117.001819 291 10300ft 251kts
03-Mar-18 15:20 33.983208 -117.057050 291 9074ft 248kts
03-Mar-18 15:21 34.011345 -117.120096 291 7628ft 240kts
03-Mar-18 15:22 34.028886 -117.160722 291 6718ft 234kts
03-Mar-18 15:23 34.053446 -117.221638 291 5320ft 228kts
03-Mar-18 15:24 34.057705 -117.265881 241 4325ft 227kts
03-Mar-18 15:25 34.055167 -117.330109 276 4153ft 210kts
03-Mar-18 15:26 34.055473 -117.386119 271 4037ft 215kts
03-Mar-18 15:27 34.054751 -117.432823 273 3450ft 199kts
03-Mar-18 15:28 34.054819 -117.477447 274 2699ft 165kts
03-Mar-18 15:29 34.054924 -117.515764 272 2080ft 138kts
03-Mar-18 15:30 34.054883 -117.541443 270 1621ft 130kts
03-Mar-18 15:31 34.054986 -117.568018 268 1197ft 133kts
03-Mar-18 15:32 34.054962 -117.593933 269 952ft 83kts
03-Mar-18 15:33 34.055609 -117.599624 313 952ft 4kts
03-Mar-18 15:34 34.057796 -117.599881 359 952ft 22kts
03-Mar-18 15:35 34.059175 -117.598124 88 952ft 21kts
03-Mar-18 15:36 34.059229 -117.592712 89 952ft 23kts
03-Mar-18 15:37 34.059529 -117.590147 14 952ft 6kts
03-Mar-18 15:38 34.059736 -117.590123 3 952ft 0kts

Navigation Log

Ident Type
Flight plan parsing failed, navigation log unavailable